Time;durP1;ratioP1;P1;durP2;ratioP2;P2;SDS_P1;SDS_P2;PMS_P1;PMS_P2;Temp;Humidity;BMP_temperature;BMP_pressure;BME280_temperature;BME280_humidity;BME280_pressure;Samples;Min_cycle;Max_cycle;Signal;HPM_P1;HPM_P2
2024/01/10 00:01:43;;;;;;;49.70;22.23;;;-10.10;99.90;-10.90;102186.00;;;;4908662;28;92752;-64
2024/01/10 00:04:09;;;;;;;36.37;18.37;;;-10.10;99.90;-10.90;102189.00;;;;4904868;28;104806;-65
2024/01/10 00:06:35;;;;;;;39.03;18.67;;;-10.10;99.90;-10.90;102194.00;;;;4907795;28;94021;-65
2024/01/10 00:09:00;;;;;;;33.23;18.00;;;-10.30;99.90;-11.00;102185.00;;;;4906709;28;122567;-66
2024/01/10 00:11:26;;;;;;;38.00;19.13;;;-10.10;99.90;-11.00;102187.00;;;;4905284;28;110309;-67
2024/01/10 00:13:52;;;;;;;39.87;18.70;;;-10.30;99.90;-11.00;102194.00;;;;4906476;28;112748;-66
2024/01/10 00:16:17;;;;;;;43.37;19.47;;;-10.30;99.90;-11.00;102186.00;;;;4906754;28;107133;-65
2024/01/10 00:18:43;;;;;;;43.13;19.40;;;-9.70;99.90;-11.00;102177.00;;;;4909416;28;123569;-66
2024/01/10 00:21:10;;;;;;;40.27;19.73;;;-10.10;99.90;-11.00;102183.00;;;;4911552;28;120678;-65
2024/01/10 00:23:36;;;;;;;36.33;19.77;;;-10.00;99.90;-11.00;102176.00;;;;4906298;28;112599;-65
2024/01/10 00:26:01;;;;;;;47.57;21.47;;;-9.40;99.90;-10.90;102192.00;;;;4905967;28;93817;-66
2024/01/10 00:28:27;;;;;;;40.30;19.57;;;-10.10;99.90;-10.90;102183.00;;;;4904462;28;122077;-65
2024/01/10 00:30:53;;;;;;;42.33;19.77;;;-9.60;99.90;-10.90;102178.00;;;;4906329;28;121478;-65
2024/01/10 00:33:18;;;;;;;36.43;19.80;;;-10.30;99.90;-10.90;102172.00;;;;4899563;28;112682;-65
2024/01/10 00:35:44;;;;;;;35.13;18.17;;;-10.10;99.90;-10.90;102167.00;;;;4907641;28;99994;-65
2024/01/10 00:38:10;;;;;;;38.13;19.50;;;-9.90;99.90;-10.90;102168.00;;;;4911115;28;93006;-65
2024/01/10 00:40:36;;;;;;;42.00;22.63;;;-10.10;99.90;-10.90;102166.00;;;;4903983;28;92922;-65
2024/01/10 00:43:03;;;;;;;37.53;19.97;;;-10.00;99.90;-10.90;102160.00;;;;4905137;28;113318;-67
2024/01/10 00:45:29;;;;;;;42.83;18.83;;;-10.00;99.90;-10.90;102160.00;;;;4905967;28;93317;-68
2024/01/10 00:47:55;;;;;;;39.33;19.10;;;-9.00;99.90;-10.90;102156.00;;;;4903574;28;120987;-66
2024/01/10 00:50:21;;;;;;;45.83;20.60;;;-9.40;99.90;-10.90;102156.00;;;;4904591;28;121525;-65
2024/01/10 00:52:46;;;;;;;41.57;19.00;;;-9.40;99.90;-10.80;102176.00;;;;4907893;28;92759;-66
2024/01/10 00:55:12;;;;;;;33.77;19.30;;;-9.60;99.90;-10.80;102161.00;;;;4903096;28;108432;-65
2024/01/10 00:57:38;;;;;;;36.10;18.97;;;-9.90;99.90;-10.80;102149.00;;;;4903173;28;121860;-66
2024/01/10 01:00:07;;;;;;;43.13;20.00;;;-10.00;99.90;-10.80;102156.00;;;;4903112;28;113179;-66
2024/01/10 01:02:32;;;;;;;35.60;19.73;;;-10.00;99.90;-10.80;102158.00;;;;4906826;28;98097;-67
2024/01/10 01:04:58;;;;;;;42.00;20.60;;;-9.90;99.90;-10.80;102155.00;;;;4904374;28;108427;-66
2024/01/10 01:07:24;;;;;;;34.67;18.23;;;-10.00;99.90;-10.80;102153.00;;;;4903443;28;122653;-66
2024/01/10 01:09:49;;;;;;;37.10;17.97;;;-10.00;99.90;-10.80;102153.00;;;;4902686;28;93822;-65
2024/01/10 01:12:15;;;;;;;43.53;18.80;;;-9.90;99.90;-10.80;102158.00;;;;4903823;28;111060;-67
2024/01/10 01:14:41;;;;;;;32.07;18.03;;;-9.90;99.90;-10.80;102156.00;;;;4903885;28;109669;-66
2024/01/10 01:17:06;;;;;;;45.40;20.70;;;-9.90;99.90;-10.80;102156.00;;;;4902483;28;124431;-65
2024/01/10 01:19:32;;;;;;;45.63;19.70;;;-9.50;99.90;-10.90;102166.00;;;;4906446;28;94010;-65
2024/01/10 01:21:58;;;;;;;43.33;19.83;;;-9.40;99.90;-10.90;102160.00;;;;4906381;28;112118;-65
2024/01/10 01:24:24;;;;;;;43.17;19.00;;;-9.30;99.90;-10.90;102173.00;;;;4908882;28;109557;-65
2024/01/10 01:26:49;;;;;;;33.63;18.33;;;-10.00;99.90;-10.90;102174.00;;;;4905303;28;122775;-65
2024/01/10 01:29:16;;;;;;;42.90;18.97;;;-10.30;99.90;-11.00;102169.00;;;;4904666;28;122739;-65
2024/01/10 01:31:41;;;;;;;35.73;18.43;;;-10.00;99.90;-11.00;102178.00;;;;4901572;28;113192;-66
2024/01/10 01:34:07;;;;;;;34.97;17.20;;;-9.80;99.90;-11.10;102165.00;;;;4903269;28;108452;-66
2024/01/10 01:36:34;;;;;;;38.20;18.90;;;-9.40;99.90;-11.10;102174.00;;;;4904447;28;124010;-66
2024/01/10 01:38:59;;;;;;;37.43;19.67;;;-10.20;99.90;-11.10;102163.00;;;;4903920;28;93143;-66
2024/01/10 01:41:25;;;;;;;38.60;19.47;;;-10.00;99.90;-11.10;102170.00;;;;4901556;28;112519;-65
2024/01/10 01:43:50;;;;;;;40.13;18.23;;;-10.40;99.90;-11.20;102166.00;;;;4902789;28;108547;-66
2024/01/10 01:46:16;;;;;;;39.83;19.97;;;-10.50;99.90;-11.20;102179.00;;;;4901812;28;122651;-65
2024/01/10 01:48:42;;;;;;;41.20;19.17;;;-10.30;99.90;-11.20;102169.00;;;;4903870;28;93799;-65
2024/01/10 01:51:09;;;;;;;41.17;19.17;;;-10.30;99.90;-11.20;102174.00;;;;4903945;28;101319;-65
2024/01/10 01:53:38;;;;;;;42.03;19.13;;;-9.60;99.90;-11.20;102167.00;;;;4903711;28;108849;-66
2024/01/10 01:56:07;;;;;;;42.03;16.97;;;-10.40;99.90;-11.20;102159.00;;;;4910693;28;94447;-66
2024/01/10 01:58:35;;;;;;;42.20;20.37;;;-10.30;99.90;-11.20;102159.00;;;;4899780;28;93518;-65
2024/01/10 02:01:03;;;;;;;39.07;18.43;;;-10.40;99.90;-11.30;102161.00;;;;4906055;28;94205;-65
2024/01/10 02:03:31;;;;;;;46.57;18.07;;;-10.40;99.90;-11.30;102175.00;;;;4905113;28;93038;-66
2024/01/10 02:05:57;;;;;;;37.57;17.57;;;-10.40;99.90;-11.30;102173.00;;;;4906227;28;93519;-65
2024/01/10 02:08:23;;;;;;;36.43;18.33;;;-10.40;99.90;-11.30;102167.00;;;;4906502;28;94126;-66
2024/01/10 02:10:49;;;;;;;42.73;19.93;;;-10.40;99.90;-11.30;102162.00;;;;4905848;28;113483;-66
2024/01/10 02:13:16;;;;;;;41.17;21.00;;;-10.40;99.90;-11.30;102153.00;;;;4903965;28;92954;-66
2024/01/10 02:15:41;;;;;;;43.20;21.80;;;-10.50;99.90;-11.30;102158.00;;;;4904752;28;94055;-66
2024/01/10 02:18:07;;;;;;;47.63;19.97;;;-10.40;99.90;-11.20;102157.00;;;;4905623;28;119383;-68
2024/01/10 02:20:33;;;;;;;42.30;19.17;;;-10.40;99.90;-11.20;102142.00;;;;4906944;28;93023;-65
2024/01/10 02:22:59;;;;;;;35.10;18.27;;;-10.30;99.90;-11.20;102142.00;;;;4904691;28;108075;-65
2024/01/10 02:25:24;;;;;;;47.10;20.57;;;-9.60;99.90;-11.20;102148.00;;;;4905259;28;121399;-65
2024/01/10 02:27:50;;;;;;;49.90;21.47;;;-10.40;99.90;-11.20;102154.00;;;;4904354;28;95687;-65
2024/01/10 02:30:16;;;;;;;31.00;18.37;;;-10.30;99.90;-11.20;102149.00;;;;4904345;28;111981;-65
2024/01/10 02:32:41;;;;;;;42.40;20.43;;;-10.30;99.90;-11.20;102144.00;;;;4907033;28;109281;-65
2024/01/10 02:35:08;;;;;;;48.03;21.23;;;-10.40;99.90;-11.20;102159.00;;;;4906093;28;93831;-67
2024/01/10 02:37:33;;;;;;;44.40;21.63;;;-10.30;99.90;-11.20;102145.00;;;;4905654;28;94334;-65
2024/01/10 02:39:59;;;;;;;39.20;19.13;;;-10.30;99.90;-11.20;102142.00;;;;4903955;28;92957;-67
2024/01/10 02:42:27;;;;;;;41.40;19.33;;;-10.40;99.90;-11.20;102150.00;;;;4910576;28;93307;-66
2024/01/10 02:44:52;;;;;;;37.27;20.03;;;-10.40;99.90;-11.20;102146.00;;;;4905278;28;94189;-65
2024/01/10 02:47:18;;;;;;;42.80;20.77;;;-10.30;99.90;-11.20;102147.00;;;;4905639;28;123955;-64
2024/01/10 02:49:44;;;;;;;41.60;20.23;;;-10.40;99.90;-11.20;102141.00;;;;4908842;28;112678;-66
2024/01/10 02:52:09;;;;;;;42.97;19.67;;;-9.80;99.90;-11.20;102141.00;;;;4908759;28;108313;-67
2024/01/10 02:54:35;;;;;;;37.07;19.10;;;-10.30;99.90;-11.20;102125.00;;;;4907584;28;120866;-66
2024/01/10 02:57:01;;;;;;;40.87;22.00;;;-10.60;99.90;-11.20;102140.00;;;;4909067;28;123348;-65
2024/01/10 02:59:26;;;;;;;32.83;20.27;;;-9.70;99.90;-11.30;102121.00;;;;4906832;28;113063;-65
2024/01/10 03:01:52;;;;;;;35.20;19.20;;;-10.50;99.90;-11.30;102112.00;;;;4913786;28;93105;-66
2024/01/10 03:04:18;;;;;;;43.27;20.13;;;-10.70;99.90;-11.30;102127.00;;;;4910323;28;123200;-66
2024/01/10 03:06:44;;;;;;;45.53;21.50;;;-10.40;99.90;-11.30;102138.00;;;;4905357;28;122579;-67
2024/01/10 03:09:09;;;;;;;45.93;20.83;;;-10.60;99.90;-11.30;102120.00;;;;4908921;28;92810;-66
2024/01/10 03:11:36;;;;;;;50.03;22.10;;;-10.60;99.90;-11.30;102119.00;;;;4910183;28;108997;-66
2024/01/10 03:14:04;;;;;;;41.53;18.93;;;-10.20;99.90;-11.30;102114.00;;;;4908885;28;94195;-67
2024/01/10 03:16:30;;;;;;;46.03;19.30;;;-10.40;99.90;-11.30;102099.00;;;;4905378;28;107132;-66
2024/01/10 03:18:56;;;;;;;48.23;22.80;;;-10.50;99.90;-11.30;102105.00;;;;4909407;28;113929;-66
2024/01/10 03:21:26;;;;;;;40.60;20.40;;;-10.60;99.90;-11.30;102107.00;;;;4905522;28;107898;-66
2024/01/10 03:23:58;;;;;;;43.00;20.97;;;-10.60;99.90;-11.40;102108.00;;;;4906729;28;92803;-66
2024/01/10 03:26:25;;;;;;;40.13;21.17;;;-10.50;99.90;-11.30;102106.00;;;;4911676;28;92816;-66
2024/01/10 03:28:52;;;;;;;45.63;20.57;;;-10.50;99.90;-11.30;102092.00;;;;4908834;28;93237;-67
2024/01/10 03:31:18;;;;;;;40.97;19.77;;;-10.40;99.90;-11.30;102092.00;;;;4905672;28;109934;-67
2024/01/10 03:33:43;;;;;;;46.07;20.93;;;-10.50;99.90;-11.40;102104.00;;;;4906535;28;97170;-66
2024/01/10 03:36:13;;;;;;;45.70;21.50;;;-10.50;99.90;-11.40;102098.00;;;;4903735;28;93112;-66
2024/01/10 03:38:39;;;;;;;43.90;21.47;;;-10.50;99.90;-11.40;102097.00;;;;4904656;28;92301;-65
2024/01/10 03:41:05;;;;;;;45.10;21.97;;;-10.50;99.90;-11.50;102098.00;;;;4907196;28;97397;-65
2024/01/10 03:43:31;;;;;;;52.27;23.67;;;-10.60;99.90;-11.50;102097.00;;;;4904872;28;94464;-66
2024/01/10 03:45:57;;;;;;;48.40;22.83;;;-10.60;99.90;-11.50;102101.00;;;;4905862;28;112387;-66
2024/01/10 03:48:23;;;;;;;41.33;19.17;;;-10.00;99.90;-11.50;102100.00;;;;4903181;28;92814;-66
2024/01/10 03:50:49;;;;;;;40.63;19.90;;;-10.60;99.90;-11.60;102087.00;;;;4906034;28;93062;-66
2024/01/10 03:53:15;;;;;;;40.40;20.53;;;-10.60;99.90;-11.60;102097.00;;;;4906865;28;121364;-67
2024/01/10 03:55:40;;;;;;;42.37;21.17;;;-10.60;99.90;-11.60;102099.00;;;;4917775;28;122581;-65
2024/01/10 03:58:06;;;;;;;40.40;21.03;;;-10.70;99.90;-11.60;102098.00;;;;4907251;28;93155;-67
2024/01/10 04:00:32;;;;;;;39.27;18.83;;;-10.70;99.90;-11.60;102090.00;;;;4907591;28;93131;-66
2024/01/10 04:02:58;;;;;;;41.90;20.50;;;-10.70;99.90;-11.60;102093.00;;;;4907854;28;92484;-66
2024/01/10 04:05:25;;;;;;;42.50;20.27;;;-10.70;99.90;-11.60;102102.00;;;;4907366;28;121383;-67
2024/01/10 04:07:51;;;;;;;45.40;22.03;;;-10.80;99.90;-11.60;102082.00;;;;4905656;28;92912;-66
2024/01/10 04:10:18;;;;;;;52.77;23.43;;;-10.80;99.90;-11.60;102097.00;;;;4910520;28;94331;-65
2024/01/10 04:12:46;;;;;;;45.17;21.17;;;-10.70;99.90;-11.60;102102.00;;;;4904977;28;123263;-65
2024/01/10 04:15:12;;;;;;;44.50;20.87;;;-10.80;99.90;-11.70;102101.00;;;;4901101;28;120519;-66
2024/01/10 04:17:38;;;;;;;39.03;21.33;;;-10.80;99.90;-11.70;102088.00;;;;4901480;28;112735;-67
2024/01/10 04:20:05;;;;;;;48.97;21.10;;;-10.20;99.90;-11.60;102085.00;;;;4909197;28;108482;-65
2024/01/10 04:22:31;;;;;;;47.00;21.43;;;-10.80;99.90;-11.60;102086.00;;;;4906310;28;116792;-65
2024/01/10 04:25:00;;;;;;;47.80;22.43;;;-10.70;99.90;-11.60;102082.00;;;;4907112;28;93881;-66
2024/01/10 04:27:26;;;;;;;46.97;21.27;;;-10.70;99.90;-11.60;102082.00;;;;4903857;28;107110;-67
2024/01/10 04:29:52;;;;;;;44.63;21.50;;;-10.80;99.90;-11.70;102100.00;;;;4900949;28;98487;-67
2024/01/10 04:32:18;;;;;;;45.83;21.43;;;-10.70;99.90;-11.60;102097.00;;;;4904119;28;109760;-66
2024/01/10 04:34:44;;;;;;;49.13;22.07;;;-10.70;99.90;-11.70;102087.00;;;;4900969;28;121911;-66
2024/01/10 04:37:10;;;;;;;41.93;22.13;;;-10.90;99.90;-11.60;102077.00;;;;4900322;28;92822;-65
2024/01/10 04:39:37;;;;;;;49.33;23.13;;;-10.70;99.90;-11.60;102086.00;;;;4907037;28;92931;-65
2024/01/10 04:42:04;;;;;;;41.40;22.17;;;-10.70;99.90;-11.60;102099.00;;;;4905821;28;93292;-65
2024/01/10 04:44:29;;;;;;;54.33;22.93;;;-10.80;99.90;-11.60;102087.00;;;;4901256;28;94156;-66
2024/01/10 04:46:55;;;;;;;48.27;22.47;;;-10.70;99.90;-11.60;102101.00;;;;4901362;28;95594;-65
2024/01/10 04:49:21;;;;;;;57.37;27.20;;;-10.70;99.90;-11.60;102091.00;;;;4908634;28;108208;-67
2024/01/10 04:51:47;;;;;;;58.47;25.10;;;-10.50;99.90;-11.60;102079.00;;;;4907681;28;120822;-66
2024/01/10 04:54:13;;;;;;;52.47;25.23;;;-10.70;99.90;-11.60;102096.00;;;;4904885;28;94415;-66
2024/01/10 04:56:39;;;;;;;50.07;24.60;;;-9.70;99.90;-11.50;102091.00;;;;4905270;28;113947;-67
2024/01/10 04:59:05;;;;;;;56.27;26.03;;;-10.70;99.90;-11.50;102093.00;;;;4905184;28;93786;-66
2024/01/10 05:01:31;;;;;;;46.43;24.40;;;-10.60;99.90;-11.50;102095.00;;;;4905668;28;93375;-66
2024/01/10 05:03:57;;;;;;;58.43;25.33;;;-10.20;99.90;-11.50;102086.00;;;;4918248;28;122891;-67
2024/01/10 05:06:23;;;;;;;54.03;25.93;;;-10.70;99.90;-11.50;102102.00;;;;4901203;28;93153;-66
2024/01/10 05:08:49;;;;;;;44.20;23.73;;;-10.20;99.90;-11.60;102101.00;;;;4908182;28;108562;-67
2024/01/10 05:11:15;;;;;;;57.47;25.53;;;-10.70;99.90;-11.60;102102.00;;;;4899867;28;113734;-67
2024/01/10 05:13:44;;;;;;;46.40;23.73;;;-10.60;99.90;-11.60;102091.00;;;;4904891;28;122597;-67
2024/01/10 05:16:10;;;;;;;49.10;25.37;;;-10.60;99.90;-11.60;102092.00;;;;4907172;28;98729;-66
2024/01/10 05:18:35;;;;;;;49.33;24.33;;;-10.70;99.90;-11.60;102095.00;;;;4907015;28;110399;-67
2024/01/10 05:21:03;;;;;;;47.00;22.80;;;-10.80;99.90;-11.60;102088.00;;;;4904239;28;93935;-66
2024/01/10 05:23:29;;;;;;;46.43;22.40;;;-10.60;99.90;-11.60;102097.00;;;;4907412;28;94226;-67
2024/01/10 05:25:55;;;;;;;44.37;21.80;;;-10.70;99.90;-11.60;102107.00;;;;4904287;28;92935;-65
2024/01/10 05:28:21;;;;;;;48.80;24.33;;;-9.70;99.90;-11.60;102110.00;;;;4903567;28;94336;-65
2024/01/10 05:30:46;;;;;;;54.20;25.27;;;-10.70;99.90;-11.60;102106.00;;;;4903662;28;94063;-68
2024/01/10 05:33:12;;;;;;;54.53;24.33;;;-11.30;99.90;-11.60;102110.00;;;;4902118;28;122974;-65
2024/01/10 05:35:38;;;;;;;59.20;27.57;;;-10.70;99.90;-11.60;102110.00;;;;4904130;28;112209;-66
2024/01/10 05:38:04;;;;;;;58.67;28.20;;;-10.70;99.90;-11.60;102108.00;;;;4902953;28;93180;-67
2024/01/10 05:40:31;;;;;;;50.03;26.30;;;-10.80;99.90;-11.60;102093.00;;;;4899892;28;120610;-68
2024/01/10 05:42:59;;;;;;;52.03;27.03;;;-10.70;99.90;-11.60;102095.00;;;;4904215;28;93310;-65
2024/01/10 05:45:25;;;;;;;51.13;24.77;;;-10.80;99.90;-11.70;102101.00;;;;4907146;28;92920;-66
2024/01/10 05:47:51;;;;;;;53.27;24.57;;;-10.90;99.90;-11.70;102098.00;;;;4907559;28;93985;-67
2024/01/10 05:50:17;;;;;;;43.70;23.20;;;-10.80;99.90;-11.70;102102.00;;;;4904923;28;114017;-65
2024/01/10 05:52:43;;;;;;;55.83;23.40;;;-10.90;99.90;-11.70;102099.00;;;;4906543;28;94949;-68
2024/01/10 05:55:09;;;;;;;48.00;23.00;;;-10.80;99.90;-11.70;102108.00;;;;4906931;28;92829;-68
2024/01/10 05:57:37;;;;;;;46.07;23.20;;;-10.90;99.90;-11.70;102090.00;;;;4909234;28;107267;-67
2024/01/10 06:00:04;;;;;;;47.00;24.10;;;-10.90;99.90;-11.70;102097.00;;;;4906124;28;94005;-66
2024/01/10 06:02:30;;;;;;;46.70;24.30;;;-10.80;99.90;-11.70;102098.00;;;;4903634;28;93650;-65
2024/01/10 06:04:56;;;;;;;54.07;23.60;;;-9.80;99.90;-11.70;102100.00;;;;4904849;28;103594;-67
2024/01/10 06:07:22;;;;;;;56.63;27.13;;;-10.90;99.90;-11.80;102090.00;;;;4905997;28;92828;-67
2024/01/10 06:09:47;;;;;;;47.03;23.97;;;-10.90;99.90;-11.80;102096.00;;;;4905755;28;124418;-66
2024/01/10 06:12:13;;;;;;;52.30;22.53;;;-10.90;99.90;-11.80;102088.00;;;;4902410;28;94228;-66
2024/01/10 06:14:39;;;;;;;47.83;23.47;;;-10.90;99.90;-11.80;102098.00;;;;4901732;28;113403;-66
2024/01/10 06:17:05;;;;;;;44.03;23.00;;;-11.00;99.90;-11.70;102100.00;;;;4902987;28;107256;-66
2024/01/10 06:19:31;;;;;;;51.10;22.80;;;-10.90;99.90;-11.80;102085.00;;;;4904143;28;93580;-66
2024/01/10 06:21:58;;;;;;;48.57;23.67;;;-10.80;99.90;-11.70;102093.00;;;;4906045;28;111730;-65
2024/01/10 06:24:24;;;;;;;54.90;23.60;;;-10.90;99.90;-11.70;102097.00;;;;4908741;28;93314;-65
2024/01/10 06:26:49;;;;;;;48.03;23.47;;;-10.80;99.90;-11.70;102088.00;;;;4909493;28;92985;-66
2024/01/10 06:29:16;;;;;;;43.87;24.73;;;-10.30;99.90;-11.70;102093.00;;;;4896978;28;121254;-66
2024/01/10 06:31:41;;;;;;;55.03;23.73;;;-10.80;99.90;-11.70;102109.00;;;;4906668;28;93744;-67
2024/01/10 06:34:08;;;;;;;54.83;25.43;;;-10.50;99.90;-11.70;102092.00;;;;4905168;28;113834;-67
2024/01/10 06:36:34;;;;;;;63.60;27.00;;;-10.90;99.90;-11.70;102105.00;;;;4904628;28;109260;-66
2024/01/10 06:39:00;;;;;;;50.57;24.30;;;-10.90;99.90;-11.70;102093.00;;;;4909234;28;113404;-64
2024/01/10 06:41:26;;;;;;;46.73;24.73;;;-10.90;99.90;-11.80;102088.00;;;;4908284;28;110090;-67
2024/01/10 06:43:52;;;;;;;44.83;21.33;;;-10.20;99.90;-11.80;102101.00;;;;4904198;28;93732;-65
2024/01/10 06:46:18;;;;;;;54.57;25.30;;;-10.90;99.90;-11.80;102105.00;;;;4910262;28;92945;-66
2024/01/10 06:48:44;;;;;;;54.97;25.17;;;-10.90;99.90;-11.80;102093.00;;;;4909286;28;115965;-66
2024/01/10 06:51:12;;;;;;;50.17;25.20;;;-10.90;99.90;-11.80;102102.00;;;;4909855;28;123005;-66
2024/01/10 06:53:38;;;;;;;48.87;24.23;;;-10.90;99.90;-11.90;102089.00;;;;4921982;28;92463;-67
2024/01/10 06:56:05;;;;;;;38.40;22.23;;;-11.00;99.90;-11.90;102089.00;;;;4894877;28;93090;-65
2024/01/10 06:58:31;;;;;;;51.70;23.27;;;-11.10;99.90;-11.90;102079.00;;;;4902599;28;94260;-65
2024/01/10 07:01:05;;;;;;;54.40;25.57;;;-11.10;99.90;-11.90;102084.00;;;;4904580;28;121249;-65
2024/01/10 07:03:32;;;;;;;59.53;30.10;;;-10.70;99.90;-11.90;102092.00;;;;4907232;28;92844;-65
2024/01/10 07:05:58;;;;;;;54.97;26.07;;;-11.00;99.90;-11.90;102089.00;;;;4907342;28;92939;-65
2024/01/10 07:08:25;;;;;;;51.57;26.30;;;-11.00;99.90;-12.00;102089.00;;;;4906060;28;93337;-67
2024/01/10 07:10:51;;;;;;;68.73;38.17;;;-11.10;99.90;-12.00;102097.00;;;;4905298;28;94276;-66
2024/01/10 07:13:17;;;;;;;59.50;32.70;;;-10.60;99.90;-12.00;102085.00;;;;4902355;28;93790;-67
2024/01/10 07:15:42;;;;;;;59.53;28.70;;;-11.10;99.90;-12.00;102093.00;;;;4902129;28;95653;-66
2024/01/10 07:18:08;;;;;;;56.83;28.17;;;-11.20;99.90;-12.00;102078.00;;;;4900619;28;122759;-66
2024/01/10 07:20:37;;;;;;;46.73;24.77;;;-10.40;99.90;-12.00;102094.00;;;;4901131;28;120979;-66
2024/01/10 07:23:03;;;;;;;66.80;28.53;;;-11.20;99.90;-12.00;102098.00;;;;4902695;28;92943;-64
2024/01/10 07:25:29;;;;;;;58.37;28.60;;;-11.00;99.90;-11.90;102095.00;;;;4903515;28;99111;-66
2024/01/10 07:27:54;;;;;;;70.03;39.17;;;-11.20;99.90;-11.90;102096.00;;;;4900013;28;123303;-66
2024/01/10 07:30:20;;;;;;;53.60;28.23;;;-11.20;99.90;-11.80;102086.00;;;;4901022;28;123706;-68
2024/01/10 07:32:46;;;;;;;57.27;26.03;;;-10.50;99.90;-11.80;102087.00;;;;4904181;28;93173;-65
2024/01/10 07:35:16;;;;;;;51.80;27.73;;;-11.00;99.90;-11.70;102097.00;;;;4905632;28;92849;-66
2024/01/10 07:37:45;;;;;;;62.57;27.07;;;-10.90;99.90;-11.60;102089.00;;;;4904037;28;94147;-66
2024/01/10 07:40:10;;;;;;;56.93;27.30;;;-10.90;99.90;-11.40;102084.00;;;;4903908;28;94007;-65
2024/01/10 07:42:37;;;;;;;57.73;29.60;;;-10.60;99.90;-11.20;102083.00;;;;4903923;28;93101;-66
2024/01/10 07:45:04;;;;;;;76.47;40.43;;;-10.40;99.90;-10.90;102081.00;;;;4923467;28;93402;-66
2024/01/10 07:47:37;;;;;;;47.80;26.20;;;-9.80;99.90;-10.70;102068.00;;;;4899555;28;93179;-66
2024/01/10 07:50:14;;;;;;;59.20;28.10;;;-10.00;99.90;-10.50;102082.00;;;;4915944;28;94171;-65
2024/01/10 07:52:40;;;;;;;56.80;30.47;;;-8.80;99.90;-10.30;102069.00;;;;4904837;28;93329;-67
2024/01/10 07:55:08;;;;;;;51.67;27.23;;;-9.60;99.90;-10.00;102074.00;;;;4902752;28;101364;-66
2024/01/10 07:57:36;;;;;;;65.53;33.33;;;-9.20;99.90;-9.80;102079.00;;;;4903506;28;93186;-66
2024/01/10 08:00:04;;;;;;;54.17;28.07;;;-9.20;99.90;-9.60;102064.00;;;;4901827;28;93332;-66
2024/01/10 08:02:33;;;;;;;64.10;28.93;;;-8.90;99.90;-9.30;102070.00;;;;4898757;28;101286;-65
2024/01/10 08:05:00;;;;;;;49.80;27.97;;;-7.90;99.90;-9.10;102069.00;;;;4900098;28;94279;-65
2024/01/10 08:07:26;;;;;;;97.77;52.70;;;-8.50;99.90;-8.90;102069.00;;;;4900653;28;94171;-64
2024/01/10 08:09:52;;;;;;;96.17;65.77;;;-7.70;99.90;-8.70;102082.00;;;;4901579;28;93368;-66
2024/01/10 08:12:18;;;;;;;49.43;26.07;;;-7.80;99.90;-8.50;102068.00;;;;4911050;28;112745;-66
2024/01/10 08:14:45;;;;;;;50.47;26.73;;;-7.40;99.90;-8.30;102085.00;;;;4909480;28;94105;-65
2024/01/10 08:17:11;;;;;;;54.50;29.17;;;-7.60;99.90;-8.20;102081.00;;;;4900732;28;93555;-65
2024/01/10 08:19:37;;;;;;;55.47;29.40;;;-7.50;99.90;-8.00;102074.00;;;;4900629;28;123052;-64
2024/01/10 08:22:03;;;;;;;69.20;29.90;;;-6.30;99.90;-7.90;102064.00;;;;4903732;28;92777;-66
2024/01/10 08:24:28;;;;;;;57.13;30.27;;;-7.20;99.90;-7.70;102081.00;;;;4901039;28;108399;-66
2024/01/10 08:26:54;;;;;;;61.70;30.43;;;-7.10;99.90;-7.50;102081.00;;;;4906600;28;121249;-64
2024/01/10 08:29:21;;;;;;;57.50;29.90;;;-6.90;99.90;-7.20;102079.00;;;;4897981;28;108978;-63
2024/01/10 08:31:47;;;;;;;57.67;25.17;;;-6.70;99.90;-6.90;102079.00;;;;4900968;28;92289;-64
2024/01/10 08:34:13;;;;;;;54.30;27.67;;;-6.40;99.90;-6.80;102098.00;;;;4904396;28;92744;-65
2024/01/10 08:36:39;;;;;;;43.97;23.43;;;-6.10;99.90;-6.60;102089.00;;;;4913443;28;122329;-64
2024/01/10 08:39:06;;;;;;;43.60;23.67;;;-5.60;99.90;-6.40;102088.00;;;;4900251;28;93979;-64
2024/01/10 08:41:33;;;;;;;48.83;23.67;;;-5.90;99.90;-6.40;102095.00;;;;4901720;28;93061;-64
2024/01/10 08:43:59;;;;;;;46.90;22.50;;;-5.80;99.90;-6.40;102094.00;;;;4899816;28;92834;-64
2024/01/10 08:46:25;;;;;;;46.40;21.87;;;-5.80;99.90;-6.30;102075.00;;;;4907141;28;94219;-64
2024/01/10 08:48:51;;;;;;;47.53;23.33;;;-5.70;99.90;-6.30;102084.00;;;;4905428;28;106818;-64
2024/01/10 08:51:17;;;;;;;46.20;23.33;;;-5.60;99.90;-6.10;102081.00;;;;4904341;28;93200;-64
2024/01/10 08:53:43;;;;;;;44.20;22.53;;;-5.60;99.90;-5.90;102080.00;;;;4905619;28;93224;-64
2024/01/10 08:56:10;;;;;;;49.13;23.30;;;-5.40;99.90;-5.60;102085.00;;;;4902977;28;93641;-63
2024/01/10 08:58:36;;;;;;;41.30;22.67;;;-5.10;99.90;-5.40;102086.00;;;;4903871;28;93207;-63
2024/01/10 09:01:04;;;;;;;45.93;23.67;;;-4.90;99.90;-5.10;102085.00;;;;4901755;28;92992;-61
2024/01/10 09:03:30;;;;;;;49.77;23.53;;;-4.50;99.90;-4.90;102087.00;;;;4898442;28;93961;-62
2024/01/10 09:05:56;;;;;;;45.47;22.20;;;-4.40;99.90;-4.70;102079.00;;;;4900668;28;112723;-64
2024/01/10 09:08:22;;;;;;;44.97;23.67;;;-4.20;99.90;-4.60;102096.00;;;;4901049;28;110558;-64
2024/01/10 09:10:49;;;;;;;39.80;21.77;;;-4.10;99.90;-4.50;102083.00;;;;4905989;28;92975;-64
2024/01/10 09:13:15;;;;;;;45.47;24.20;;;-4.00;99.90;-4.40;102088.00;;;;4905437;28;93469;-64
2024/01/10 09:15:41;;;;;;;43.80;21.60;;;-3.80;99.90;-4.20;102082.00;;;;4904851;28;115628;-64
2024/01/10 09:18:07;;;;;;;32.97;21.67;;;-3.70;99.90;-4.00;102095.00;;;;4902691;28;110647;-62
2024/01/10 09:20:32;;;;;;;48.33;27.37;;;-3.60;99.90;-3.90;102092.00;;;;4905006;28;92347;-63
2024/01/10 09:23:00;;;;;;;48.23;29.17;;;-3.40;99.90;-3.80;102100.00;;;;4903703;28;93020;-64
2024/01/10 09:25:26;;;;;;;45.40;26.77;;;-3.40;99.90;-3.70;102087.00;;;;4903299;28;94085;-64
2024/01/10 09:27:51;;;;;;;59.00;29.13;;;-3.20;99.90;-3.60;102091.00;;;;4902674;28;113252;-62
2024/01/10 09:30:18;;;;;;;53.60;27.53;;;-3.10;99.90;-3.40;102088.00;;;;4901373;28;112001;-64
2024/01/10 09:32:44;;;;;;;53.37;32.73;;;-3.10;99.90;-3.20;102088.00;;;;4899686;28;93062;-65
2024/01/10 09:35:10;;;;;;;39.23;21.50;;;-2.80;99.90;-3.00;102094.00;;;;4903063;28;94003;-64
2024/01/10 09:37:36;;;;;;;38.43;21.83;;;-2.60;99.90;-3.00;102096.00;;;;4899196;28;116697;-64
2024/01/10 09:40:02;;;;;;;44.40;24.17;;;-2.60;99.90;-2.90;102094.00;;;;4900140;28;114062;-65
2024/01/10 09:42:31;;;;;;;43.40;21.40;;;-2.50;99.90;-2.80;102099.00;;;;4902218;28;97922;-65
2024/01/10 09:44:57;;;;;;;32.13;19.87;;;-2.40;99.90;-2.70;102084.00;;;;4900447;28;93319;-64
2024/01/10 09:47:24;;;;;;;36.53;21.87;;;-2.30;99.90;-2.50;102086.00;;;;4904761;28;93221;-65
2024/01/10 09:49:50;;;;;;;38.27;20.80;;;-2.20;99.90;-2.30;102090.00;;;;4917884;28;97837;-64
2024/01/10 09:52:29;;;;;;;49.00;28.03;;;-1.90;99.60;-2.20;102092.00;;;;4901296;28;94143;-66
2024/01/10 09:54:57;;;;;;;35.40;20.33;;;-1.90;99.30;-2.00;102085.00;;;;4904242;28;93570;-65
2024/01/10 09:57:25;;;;;;;37.23;19.40;;;-1.70;99.40;-1.80;102087.00;;;;4899456;28;92961;-66
2024/01/10 09:59:54;;;;;;;38.43;21.47;;;-1.50;99.30;-1.60;102083.00;;;;4902909;28;92900;-65
2024/01/10 10:02:22;;;;;;;34.13;19.90;;;-1.30;99.20;-1.30;102092.00;;;;4899961;28;93089;-67
2024/01/10 10:05:07;;;;;;;35.97;27.83;;;-1.10;98.60;-1.10;102100.00;;;;4902710;28;93690;-67
2024/01/10 10:07:48;;;;;;;33.63;19.37;;;-0.80;98.80;-0.80;102092.00;;;;4906808;28;112840;-66
2024/01/10 10:10:15;;;;;;;32.90;18.47;;;-0.50;98.50;-0.50;102095.00;;;;4896697;28;99525;-65
2024/01/10 10:12:46;;;;;;;32.17;18.23;;;-0.30;97.80;-0.40;102100.00;;;;4898513;28;94492;-65
2024/01/10 10:15:14;;;;;;;33.20;18.50;;;-0.10;96.50;-0.30;102099.00;;;;4898362;28;94153;-66
2024/01/10 10:17:46;;;;;;;33.17;19.17;;;0.00;96.70;-0.20;102104.00;;;;4896994;28;93796;-64